Ida — C4CZ2 — position and weather

sailwx.info

Track history (hours):
 
Tides and Currents Weather Stations Pressure Air Temp Water Temp Dewpoint Dewpoint Depression Visibility Wind Speed Wind Dir Waves Ship Positions

Ida

Last reported at 2017-Aug-22 02:54 UTC. Time now 2017-Aug-22 05:19 UTC.
Position N 53°30' E 005°11'.

Length 82 m.

Type: Cargo ship. MMSI: 210319000.

Date/timePositionNaut miles runAvg speedWind from/ knotsBaromVisibWave heightAir tempDewpointWater temp
2017-Aug-22 02:54N 53°30' E 005°11'3 7.9
2017-Aug-22 02:30N 53°29' E 005°06'4 7.5
2017-Aug-22 02:00N 53°27' E 004°60'39 7.1
2017-Aug-21 20:35N 52°57' E 004°19'1 7.4
2017-Aug-21 20:24N 52°56' E 004°18'7 7.7
2017-Aug-21 19:32N 52°50' E 004°13'1 7.8
2017-Aug-21 19:26N 52°50' E 004°12'3 8.0
2017-Aug-21 19:00N 52°47' E 004°09'4 8.3
2017-Aug-21 18:30N 52°43' E 004°06'4 8.8
2017-Aug-21 18:00N 52°39' E 004°02'5 9.3
2017-Aug-21 17:30N 52°35' E 003°59'5 9.2
2017-Aug-21 16:59N 52°31' E 003°56'2110.5
2017-Aug-21 15:00N 52°10' E 003°54'3 5.5
2017-Aug-21 14:30N 52°07' E 003°55'4 9.0
2017-Aug-21 14:00N 52°03' E 003°58'4 7.9
2017-Aug-21 13:30N 51°60' E 004°02'5 9.1
2017-Aug-21 13:00N 51°58' E 004°09'4 8.5
2017-Aug-21 12:31N 51°55' E 004°14'4 8.9
2017-Aug-21 12:00N 51°54' E 004°21'5 9.0
2017-Aug-21 11:30N 51°54' E 004°28'0 0.2
2017-Aug-21 11:00N 51°54' E 004°28'0 0.0
2017-Aug-21 10:30N 51°54' E 004°28'0 0.0
2017-Aug-21 10:00N 51°54' E 004°28'0 0.0
2017-Aug-21 09:30N 51°54' E 004°28'0 0.0
2017-Aug-21 09:00N 51°54' E 004°28'0 0.0
2017-Aug-21 08:30N 51°54' E 004°28'0 0.0
2017-Aug-21 08:00N 51°54' E 004°28'0 0.0
2017-Aug-21 07:30N 51°54' E 004°28'0 0.0
2017-Aug-21 07:00N 51°54' E 004°28'0 0.0
2017-Aug-21 06:30N 51°54' E 004°28'0 0.0
2017-Aug-21 06:00N 51°54' E 004°28'0 0.0
2017-Aug-21 05:29N 51°54' E 004°28'0 0.0
2017-Aug-21 05:00N 51°54' E 004°28'0 0.0
2017-Aug-21 04:30N 51°54' E 004°28'0 0.0
2017-Aug-21 04:00N 51°54' E 004°28'0 0.0
2017-Aug-21 03:30N 51°54' E 004°28'0 0.0
2017-Aug-21 02:59N 51°54' E 004°28'0 0.0
2017-Aug-21 02:30N 51°54' E 004°28'0 0.0
2017-Aug-21 02:00N 51°54' E 004°28'0 0.0
2017-Aug-21 01:30N 51°54' E 004°28'0 0.0
2017-Aug-21 01:00N 51°54' E 004°28'0 0.0
2017-Aug-21 00:30N 51°54' E 004°28'0 0.0
2017-Aug-21 00:00N 51°54' E 004°28'0 0.0
2017-Aug-20 23:30N 51°54' E 004°28'0 0.7
2017-Aug-20 23:00N 51°54' E 004°28'4 7.4
2017-Aug-20 22:31N 51°54' E 004°22'3 6.5
2017-Aug-20 22:01N 51°53' E 004°17'0 0.4
2017-Aug-20 21:30N 51°53' E 004°16'0 0.0
2017-Aug-20 21:00N 51°53' E 004°16'0 0.0
2017-Aug-20 20:31N 51°53' E 004°16'0 0.0
2017-Aug-20 20:01N 51°53' E 004°16'0 0.0
2017-Aug-20 19:31N 51°53' E 004°16'0 0.0
2017-Aug-20 19:01N 51°53' E 004°16'1 1.9
2017-Aug-20 18:30N 51°53' E 004°18'4 7.5
2017-Aug-20 18:00N 51°54' E 004°24'3 5.3
2017-Aug-20 17:30N 51°54' E 004°28'0 0.0
2017-Aug-20 17:00N 51°54' E 004°28'0 0.0
2017-Aug-20 16:30N 51°54' E 004°28'0 0.0
2017-Aug-20 16:00N 51°54' E 004°28'0 0.0
2017-Aug-20 15:30N 51°54' E 004°28'0 0.0
2017-Aug-20 15:00N 51°54' E 004°28'0 0.0
2017-Aug-20 14:30N 51°54' E 004°28'0 0.0
2017-Aug-20 14:00N 51°54' E 004°28'0 0.0
2017-Aug-20 13:30N 51°54' E 004°28'0 0.0
2017-Aug-20 13:00N 51°54' E 004°28'0 0.0
2017-Aug-20 12:30N 51°54' E 004°28'0 0.0
2017-Aug-20 12:00N 51°54' E 004°28'0 0.0
2017-Aug-20 11:30N 51°54' E 004°28'0 0.0
2017-Aug-20 11:00N 51°54' E 004°28'0 0.0
2017-Aug-20 10:30N 51°54' E 004°28'0 0.0
2017-Aug-20 10:00N 51°54' E 004°28'0 0.0
2017-Aug-20 09:30N 51°54' E 004°28'0 0.0
2017-Aug-20 09:00N 51°54' E 004°28'0 0.0
2017-Aug-20 08:30N 51°54' E 004°28'0 0.0
2017-Aug-20 08:00N 51°54' E 004°28'0 0.0
2017-Aug-20 07:30N 51°54' E 004°28'0 0.0
2017-Aug-20 07:00N 51°54' E 004°28'0 0.0
2017-Aug-20 06:30N 51°54' E 004°28'0 0.0
2017-Aug-20 06:00N 51°54' E 004°28'0 0.0
2017-Aug-20 05:30N 51°54' E 004°28'0 0.0
2017-Aug-20 05:00N 51°54' E 004°28'0 0.0
2017-Aug-20 04:30N 51°54' E 004°28'0 0.0
2017-Aug-20 04:00N 51°54' E 004°28'0 0.0
2017-Aug-20 03:30N 51°54' E 004°28'0 0.0
2017-Aug-20 03:00N 51°54' E 004°28'0 0.0
2017-Aug-20 02:30N 51°54' E 004°28'0 0.0
2017-Aug-20 02:00N 51°54' E 004°28'0 0.0
2017-Aug-20 01:30N 51°54' E 004°28'0 0.0
2017-Aug-20 01:00N 51°54' E 004°28'0 0.0
2017-Aug-20 00:30N 51°54' E 004°28'0 0.0
2017-Aug-20 00:00N 51°54' E 004°28'0 0.0
2017-Aug-19 23:30N 51°54' E 004°28'0 0.0
2017-Aug-19 23:00N 51°54' E 004°28'0 0.0
2017-Aug-19 22:30N 51°54' E 004°28'0 0.0
2017-Aug-19 22:00N 51°54' E 004°28'0 0.0
2017-Aug-19 21:30N 51°54' E 004°28'0 0.0
2017-Aug-19 21:00N 51°54' E 004°28'0 0.0
2017-Aug-19 20:30N 51°54' E 004°28'0 0.0
2017-Aug-19 20:00N 51°54' E 004°28'0 0.0
2017-Aug-19 19:30N 51°54' E 004°28'0 0.0
2017-Aug-19 19:00N 51°54' E 004°28'0 0.0
2017-Aug-19 18:30N 51°54' E 004°28'0 0.0
2017-Aug-19 18:00N 51°54' E 004°28'0 0.0
2017-Aug-19 17:30N 51°54' E 004°28'0 0.0
2017-Aug-19 17:00N 51°54' E 004°28'0 0.0
2017-Aug-19 16:30N 51°54' E 004°28'0 0.0
2017-Aug-19 16:00N 51°54' E 004°28'0 0.0
2017-Aug-19 15:30N 51°54' E 004°28'0 0.0
2017-Aug-19 15:00N 51°54' E 004°28'0 0.0
2017-Aug-19 14:00N 51°54' E 004°28'0 0.0
2017-Aug-19 13:30N 51°54' E 004°28'0 0.0
2017-Aug-19 13:00N 51°54' E 004°28'0 0.0
2017-Aug-19 12:30N 51°54' E 004°28'0 0.0
2017-Aug-19 12:00N 51°54' E 004°28'0 0.0
2017-Aug-19 11:30N 51°54' E 004°28'0 0.0
2017-Aug-19 11:00N 51°54' E 004°28'0 0.0
2017-Aug-19 10:30N 51°54' E 004°28'0 0.0
2017-Aug-19 10:00N 51°54' E 004°28'0 0.0
2017-Aug-19 09:30N 51°54' E 004°28'0 0.0
2017-Aug-19 09:00N 51°54' E 004°28'0 0.0
2017-Aug-19 08:30N 51°54' E 004°28'0 0.0
2017-Aug-19 08:00N 51°54' E 004°28'0 0.0
2017-Aug-19 07:30N 51°54' E 004°28'0 0.0
2017-Aug-19 07:00N 51°54' E 004°28'0 0.0
2017-Aug-19 06:30N 51°54' E 004°28'0 0.0
2017-Aug-19 06:00N 51°54' E 004°28'0 0.0
2017-Aug-19 05:30N 51°54' E 004°28'0 0.0
2017-Aug-19 05:00N 51°54' E 004°28'0 0.0
2017-Aug-19 04:30N 51°54' E 004°28'0 0.0
2017-Aug-19 04:00N 51°54' E 004°28'0 0.0
2017-Aug-19 03:30N 51°54' E 004°28'0 0.0
2017-Aug-19 03:00N 51°54' E 004°28'0 0.0
2017-Aug-19 02:30N 51°54' E 004°28'0 0.0
2017-Aug-19 02:00N 51°54' E 004°28'0 0.0
2017-Aug-19 01:30N 51°54' E 004°28'0 0.0
2017-Aug-19 01:00N 51°54' E 004°28'0 0.0
2017-Aug-19 00:30N 51°54' E 004°28'0 0.0
2017-Aug-19 00:00N 51°54' E 004°28'0 0.0
2017-Aug-18 23:30N 51°54' E 004°28'0 0.0
2017-Aug-18 23:00N 51°54' E 004°28'0 0.0
2017-Aug-18 22:30N 51°54' E 004°28'0 0.0
2017-Aug-18 22:00N 51°54' E 004°28'0 0.0
2017-Aug-18 21:30N 51°54' E 004°28'0 0.0
2017-Aug-18 21:00N 51°54' E 004°28'0 0.0
2017-Aug-18 20:30N 51°54' E 004°28'0 0.0
2017-Aug-18 20:00N 51°54' E 004°28'0 0.0
2017-Aug-18 19:30N 51°54' E 004°28'0 0.0
2017-Aug-18 19:00N 51°54' E 004°28'0 0.0
2017-Aug-18 18:30N 51°54' E 004°28'0 0.0
2017-Aug-18 18:00N 51°54' E 004°28'0 0.0
2017-Aug-18 17:30N 51°54' E 004°28'0 0.0
2017-Aug-18 17:00N 51°54' E 004°28'0 0.0
2017-Aug-18 16:30N 51°54' E 004°28'0 0.0
2017-Aug-18 16:00N 51°54' E 004°28'0 0.0
2017-Aug-18 15:30N 51°54' E 004°28'0 0.0
2017-Aug-18 15:00N 51°54' E 004°28'0 0.0
2017-Aug-18 14:30N 51°54' E 004°28'0 0.0
2017-Aug-18 13:30N 51°54' E 004°28'0 0.0
2017-Aug-18 13:00N 51°54' E 004°28'0 0.0
2017-Aug-18 12:30N 51°54' E 004°28'0 0.0
2017-Aug-18 11:59N 51°54' E 004°28'0 0.0
2017-Aug-18 11:30N 51°54' E 004°28'0 0.0
2017-Aug-18 11:00N 51°54' E 004°28'0 0.0
2017-Aug-18 10:29N 51°54' E 004°28'0 0.0
2017-Aug-18 10:00N 51°54' E 004°28'0 0.0
2017-Aug-18 09:30N 51°54' E 004°28'0 0.0
2017-Aug-18 09:00N 51°54' E 004°28'0 0.0
2017-Aug-18 08:30N 51°54' E 004°28'0 0.0
2017-Aug-18 08:00N 51°54' E 004°28'0 0.0
2017-Aug-18 07:30N 51°54' E 004°28'0 0.0
2017-Aug-18 07:00N 51°54' E 004°28'0 0.0
2017-Aug-18 06:30N 51°54' E 004°28'0 0.0
2017-Aug-18 06:00N 51°54' E 004°28'0 0.0
2017-Aug-18 05:30N 51°54' E 004°28'0 0.0
2017-Aug-18 05:00N 51°54' E 004°28'0 0.0
2017-Aug-18 04:30N 51°54' E 004°28'0 0.0
2017-Aug-18 04:00N 51°54' E 004°28'0 0.0
2017-Aug-18 03:30N 51°54' E 004°28'0 0.0
2017-Aug-18 03:00N 51°54' E 004°28'0 0.0
2017-Aug-18 02:30N 51°54' E 004°28'0 0.0
2017-Aug-18 02:00N 51°54' E 004°28'0 0.0
2017-Aug-18 01:30N 51°54' E 004°28'0 0.0
2017-Aug-18 01:00N 51°54' E 004°28'0 0.0
2017-Aug-18 00:30N 51°54' E 004°28'0 0.0
2017-Aug-18 00:00N 51°54' E 004°28'0 0.0
2017-Aug-17 23:30N 51°54' E 004°28'0 0.0
2017-Aug-17 23:00N 51°54' E 004°28'0 0.0
2017-Aug-17 22:30N 51°54' E 004°28'0 0.0
2017-Aug-17 22:00N 51°54' E 004°28'0 0.0
2017-Aug-17 21:30N 51°54' E 004°28'0 0.0
2017-Aug-17 21:00N 51°54' E 004°28'0 0.0
2017-Aug-17 20:30N 51°54' E 004°28'0 0.0
2017-Aug-17 20:00N 51°54' E 004°28'0 0.0
2017-Aug-17 19:30N 51°54' E 004°28'0 0.0
2017-Aug-17 19:00N 51°54' E 004°28'0 0.0
2017-Aug-17 18:30N 51°54' E 004°28'0 0.0
2017-Aug-17 18:00N 51°54' E 004°28'0 0.0
2017-Aug-17 17:30N 51°54' E 004°28'0 0.0
2017-Aug-17 17:00N 51°54' E 004°28'0 0.0
2017-Aug-17 16:30N 51°54' E 004°28'0 0.0
2017-Aug-17 16:00N 51°54' E 004°28'0 0.0
2017-Aug-17 15:30N 51°54' E 004°28'0 0.0
2017-Aug-17 15:00N 51°54' E 004°28'0 0.0
2017-Aug-17 14:30N 51°54' E 004°28'0 0.0
2017-Aug-17 14:00N 51°54' E 004°28'0 0.0
2017-Aug-17 13:29N 51°54' E 004°28'0 0.0
2017-Aug-17 13:00N 51°54' E 004°28'0 0.0
2017-Aug-17 12:30N 51°54' E 004°28'0 0.0
2017-Aug-17 12:00N 51°54' E 004°28'0 0.0
2017-Aug-17 11:30N 51°54' E 004°28'0 0.0
2017-Aug-17 11:00N 51°54' E 004°28'0 0.0
2017-Aug-17 10:30N 51°54' E 004°28'0 0.0
2017-Aug-17 10:00N 51°54' E 004°28'0 0.0
2017-Aug-17 09:30N 51°54' E 004°28'0 0.0
2017-Aug-17 09:00N 51°54' E 004°28'0 0.0
2017-Aug-17 08:30N 51°54' E 004°28'0 0.0
2017-Aug-17 08:00N 51°54' E 004°28'0 0.0
2017-Aug-17 07:29N 51°54' E 004°28'0 0.0
2017-Aug-17 07:00N 51°54' E 004°28'0 0.0
2017-Aug-17 06:30N 51°54' E 004°28'0 0.0
2017-Aug-17 06:00N 51°54' E 004°28'0 0.0
2017-Aug-17 05:30N 51°54' E 004°28'0 0.0
2017-Aug-17 05:00N 51°54' E 004°28'0 0.0
2017-Aug-17 04:29N 51°54' E 004°28'0 0.0
2017-Aug-17 04:00N 51°54' E 004°28'0 0.0
2017-Aug-17 03:30N 51°54' E 004°28'0 0.0
2017-Aug-17 03:00N 51°54' E 004°28'0 0.0
2017-Aug-17 02:30N 51°54' E 004°28'0 0.0
2017-Aug-17 02:00N 51°54' E 004°28'0 0.0
2017-Aug-17 01:30N 51°54' E 004°28'0 0.0
2017-Aug-17 00:59N 51°54' E 004°28'0 0.0
2017-Aug-17 00:29N 51°54' E 004°28'0 0.0
2017-Aug-17 00:00N 51°54' E 004°28'0 0.0
2017-Aug-16 23:30N 51°54' E 004°28'0 0.0
2017-Aug-16 23:00N 51°54' E 004°28'0 0.0
2017-Aug-16 22:30N 51°54' E 004°28'0 0.0
2017-Aug-16 22:00N 51°54' E 004°28'0 0.0
2017-Aug-16 21:30N 51°54' E 004°28'0 0.0
2017-Aug-16 21:00N 51°54' E 004°28'0 0.0
2017-Aug-16 20:30N 51°54' E 004°28'0 0.0
2017-Aug-16 20:00N 51°54' E 004°28'0 0.0
2017-Aug-16 19:30N 51°54' E 004°28'0 0.0
2017-Aug-16 19:00N 51°54' E 004°28'0 0.0
2017-Aug-16 18:30N 51°54' E 004°28'0 0.0
2017-Aug-16 18:00N 51°54' E 004°28'0 0.0
2017-Aug-16 17:30N 51°54' E 004°28'0 0.0
2017-Aug-16 17:00N 51°54' E 004°28'0 0.0
2017-Aug-16 16:30N 51°54' E 004°28'0 0.0
2017-Aug-16 16:00N 51°54' E 004°28'0 0.0
2017-Aug-16 15:30N 51°54' E 004°28'0 0.0
2017-Aug-16 15:00N 51°54' E 004°28'0 0.0
2017-Aug-16 14:30N 51°54' E 004°28'0 0.0
2017-Aug-16 14:00N 51°54' E 004°28'0 0.0
2017-Aug-16 13:30N 51°54' E 004°28'0 0.0
2017-Aug-16 13:00N 51°54' E 004°28'0 0.0
2017-Aug-16 12:30N 51°54' E 004°28'0 0.0
2017-Aug-16 12:00N 51°54' E 004°28'0 0.0
2017-Aug-16 11:30N 51°54' E 004°28'0 0.0
2017-Aug-16 11:00N 51°54' E 004°28'0 0.0
2017-Aug-16 10:30N 51°54' E 004°28'0 0.0
2017-Aug-16 10:00N 51°54' E 004°28'0 0.0
2017-Aug-16 09:30N 51°54' E 004°28'0 0.0
2017-Aug-16 09:00N 51°54' E 004°28'0 0.0
2017-Aug-16 08:30N 51°54' E 004°28'0 0.0
2017-Aug-16 08:00N 51°54' E 004°28'0 0.0
2017-Aug-16 07:30N 51°54' E 004°28'0 0.0
2017-Aug-16 07:00N 51°54' E 004°28'0 0.0
2017-Aug-16 06:30N 51°54' E 004°28'0 0.0
2017-Aug-16 06:00N 51°54' E 004°28'0 0.0
2017-Aug-16 05:30N 51°54' E 004°28'0 0.0
2017-Aug-16 05:00N 51°54' E 004°28'0 0.0
2017-Aug-16 04:30N 51°54' E 004°28'0 0.0
2017-Aug-16 04:00N 51°54' E 004°28'0 0.0
2017-Aug-16 03:30N 51°54' E 004°28'0 0.0
2017-Aug-16 03:00N 51°54' E 004°28'0 0.0
2017-Aug-16 02:30N 51°54' E 004°28'0 0.0
2017-Aug-16 02:00N 51°54' E 004°28'0 0.0
2017-Aug-16 01:30N 51°54' E 004°28'0 0.0
2017-Aug-16 01:00N 51°54' E 004°28'0 0.0
2017-Aug-16 00:30N 51°54' E 004°28'0 0.0
2017-Aug-16 00:00N 51°54' E 004°28'0 0.0
2017-Aug-15 23:30N 51°54' E 004°28'0 0.0
2017-Aug-15 23:00N 51°54' E 004°28'0 0.0
2017-Aug-15 22:30N 51°54' E 004°28'0 0.0
2017-Aug-15 22:00N 51°54' E 004°28'0 0.0
2017-Aug-15 21:30N 51°54' E 004°28'0 0.0
2017-Aug-15 21:00N 51°54' E 004°28'0 0.0
2017-Aug-15 20:30N 51°54' E 004°28'0 0.0
2017-Aug-15 20:00N 51°54' E 004°28'0 0.0
2017-Aug-15 19:30N 51°54' E 004°28'0 0.0
2017-Aug-15 19:00N 51°54' E 004°28'0 0.0
2017-Aug-15 18:30N 51°54' E 004°28'0 0.0
2017-Aug-15 18:00N 51°54' E 004°28'0 0.0
2017-Aug-15 17:30N 51°54' E 004°28'0 0.0
2017-Aug-15 17:00N 51°54' E 004°28'0 0.0
2017-Aug-15 16:30N 51°54' E 004°28'0 0.0
2017-Aug-15 16:00N 51°54' E 004°28'0 0.0
2017-Aug-15 15:30N 51°54' E 004°28'0 0.0
2017-Aug-15 15:00N 51°54' E 004°28'0 0.0
2017-Aug-15 14:30N 51°54' E 004°28'0 0.0
2017-Aug-15 14:00N 51°54' E 004°28'0 0.0
2017-Aug-15 13:30N 51°54' E 004°28'0 0.0
2017-Aug-15 13:00N 51°54' E 004°28'0 0.0
2017-Aug-15 12:30N 51°54' E 004°28'0 0.0
2017-Aug-15 12:00N 51°54' E 004°28'0 0.0
2017-Aug-15 11:30N 51°54' E 004°28'0 0.0
2017-Aug-15 11:00N 51°54' E 004°28'0 0.0
2017-Aug-15 10:30N 51°54' E 004°28'0 0.0
2017-Aug-15 10:00N 51°54' E 004°28'0 0.0
2017-Aug-15 09:30N 51°54' E 004°28'0 0.0
2017-Aug-15 09:00N 51°54' E 004°28'0 0.0
2017-Aug-15 08:30N 51°54' E 004°28'0 0.0
2017-Aug-15 08:00N 51°54' E 004°28'0 0.0
2017-Aug-15 07:30N 51°54' E 004°28'0 0.0
2017-Aug-15 07:00N 51°54' E 004°28'0 0.0
2017-Aug-15 06:30N 51°54' E 004°28'0 0.0
2017-Aug-15 06:00N 51°54' E 004°28'0 0.0
2017-Aug-15 05:30N 51°54' E 004°28'0 0.0
2017-Aug-15 05:00N 51°54' E 004°28'0 0.0
2017-Aug-15 04:30N 51°54' E 004°28'0 0.0
2017-Aug-15 04:00N 51°54' E 004°28'0 0.0
2017-Aug-15 03:30N 51°54' E 004°28'0 0.0
2017-Aug-15 03:00N 51°54' E 004°28'0 0.0
2017-Aug-15 02:30N 51°54' E 004°28'0 0.0
2017-Aug-15 02:00N 51°54' E 004°28'0 0.0
2017-Aug-15 01:30N 51°54' E 004°28'0 0.0
2017-Aug-15 01:00N 51°54' E 004°28'0 0.0
2017-Aug-15 00:30N 51°54' E 004°28'0 0.0
2017-Aug-15 00:00N 51°54' E 004°28'0 0.0
2017-Aug-14 23:30N 51°54' E 004°28'0 0.0
2017-Aug-14 23:00N 51°54' E 004°28'0 0.0
2017-Aug-14 22:30N 51°54' E 004°28'0 0.0
2017-Aug-14 22:00N 51°54' E 004°28'0 0.0
2017-Aug-14 21:30N 51°54' E 004°28'0 0.0
2017-Aug-14 21:00N 51°54' E 004°28'0 0.0
2017-Aug-14 20:30N 51°54' E 004°28'0 0.0
2017-Aug-14 20:00N 51°54' E 004°28'0 0.0
2017-Aug-14 19:30N 51°54' E 004°28'0 0.0
2017-Aug-14 19:00N 51°54' E 004°28'0 0.0
2017-Aug-14 18:30N 51°54' E 004°28'0 0.0
2017-Aug-14 18:00N 51°54' E 004°28'0 0.0
2017-Aug-14 17:30N 51°54' E 004°28'0 0.0
2017-Aug-14 17:00N 51°54' E 004°28'0 0.0
2017-Aug-14 16:30N 51°54' E 004°28'0 0.0
2017-Aug-14 16:00N 51°54' E 004°28'0 0.0
2017-Aug-14 15:30N 51°54' E 004°28'0 0.2
2017-Aug-14 15:00N 51°54' E 004°28'0 0.2
2017-Aug-14 14:30N 51°54' E 004°28'0 0.0
2017-Aug-14 14:00N 51°54' E 004°28'0 0.0
2017-Aug-14 13:30N 51°54' E 004°28'0 0.0
2017-Aug-14 13:00N 51°54' E 004°28'0 0.0
2017-Aug-14 12:30N 51°54' E 004°28'0 0.0
2017-Aug-14 12:00N 51°54' E 004°28'0 0.0
2017-Aug-14 11:30N 51°54' E 004°28'0 0.0
2017-Aug-14 11:00N 51°54' E 004°28'0 0.0
2017-Aug-14 10:30N 51°54' E 004°28'0 0.1
2017-Aug-14 10:00N 51°54' E 004°28'3 5.9
2017-Aug-14 09:31N 51°54' E 004°23'4 8.1
2017-Aug-14 09:01N 51°54' E 004°17'4 8.2
2017-Aug-14 08:30N 51°56' E 004°12'4 8.7
2017-Aug-14 08:00N 51°59' E 004°06'4 8.1
2017-Aug-14 07:31N 52°00' E 003°59'510.0
2017-Aug-14 07:01N 52°01' E 003°51'4 7.9
2017-Aug-14 06:30N 51°59' E 003°45'3 0.8
2017-Aug-14 03:02N 51°57' E 003°43'0 0.0
2017-Aug-14 03:00N 51°57' E 003°43'0 0.0
2017-Aug-14 02:30N 51°57' E 003°43'0 0.0
2017-Aug-14 02:00N 51°57' E 003°43'0 0.0
2017-Aug-14 01:30N 51°57' E 003°43'0 0.0
2017-Aug-14 00:59N 51°57' E 003°43'0 0.0
2017-Aug-13 18:51N 51°57' E 003°43'0 0.0
2017-Aug-13 17:24N 51°57' E 003°43'0 0.0
2017-Aug-13 17:00N 51°57' E 003°43'0 0.1
2017-Aug-13 15:32N 51°57' E 003°43'0 0.0
2017-Aug-13 15:30N 51°57' E 003°43'0 0.0
2017-Aug-13 15:00N 51°57' E 003°43'0 0.0
2017-Aug-13 14:30N 51°57' E 003°43'0 0.0
2017-Aug-13 14:00N 51°57' E 003°43'0 0.0
2017-Aug-12 18:52N 51°57' E 003°43'11 9.5
2017-Aug-12 17:45N 51°55' E 003°26'0 1.0
2017-Aug-12 17:30N 51°55' E 003°25'1210.7
2017-Aug-12 16:25N 51°51' E 003°07'37 9.6
2017-Aug-12 12:34N 51°29' E 002°19'1 8.5
2017-Aug-12 12:28N 51°29' E 002°18'4 7.9
2017-Aug-12 12:00N 51°26' E 002°15'4 7.5
2017-Aug-12 11:31N 51°23' E 002°12'4 7.6
2017-Aug-12 11:01N 51°19' E 002°08'4 7.4
2017-Aug-12 10:31N 51°16' E 002°05'4 7.0
2017-Aug-12 10:01N 51°14' E 002°01'4 7.3
2017-Aug-12 09:31N 51°11' E 001°57'4 7.4
2017-Aug-12 09:01N 51°09' E 001°53'4 7.4
2017-Aug-12 08:31N 51°06' E 001°48'4 7.5
2017-Aug-12 08:01N 51°04' E 001°44'4 8.0
2017-Aug-12 07:31N 51°01' E 001°40'4 8.5
2017-Aug-12 07:00N 50°58' E 001°35'5 9.1
2017-Aug-12 06:28N 50°54' E 001°30'  
Track history (hours):
 
Tides and Currents Weather Stations Pressure Air Temp Water Temp Dewpoint Dewpoint Depression Visibility Wind Speed Wind Dir Waves Ship Positions

Ida

Last reported at 2017-Aug-22 02:54 UTC. Time now 2017-Aug-22 05:19 UTC.
Position N 53°30' E 005°11'.

Length 82 m.

Type: Cargo ship. MMSI: 210319000.

Date/timePositionNaut miles runAvg speedWind from/ knotsBaromVisibWave heightAir tempDewpointWater temp
2017-Aug-22 02:54N 53°30' E 005°11'3 7.9
2017-Aug-22 02:30N 53°29' E 005°06'4 7.5
2017-Aug-22 02:00N 53°27' E 004°60'39 7.1
2017-Aug-21 20:35N 52°57' E 004°19'1 7.4
2017-Aug-21 20:24N 52°56' E 004°18'7 7.7
2017-Aug-21 19:32N 52°50' E 004°13'1 7.8
2017-Aug-21 19:26N 52°50' E 004°12'3 8.0
2017-Aug-21 19:00N 52°47' E 004°09'4 8.3
2017-Aug-21 18:30N 52°43' E 004°06'4 8.8
2017-Aug-21 18:00N 52°39' E 004°02'5 9.3
2017-Aug-21 17:30N 52°35' E 003°59'5 9.2
2017-Aug-21 16:59N 52°31' E 003°56'2110.5
2017-Aug-21 15:00N 52°10' E 003°54'3 5.5
2017-Aug-21 14:30N 52°07' E 003°55'4 9.0
2017-Aug-21 14:00N 52°03' E 003°58'4 7.9
2017-Aug-21 13:30N 51°60' E 004°02'5 9.1
2017-Aug-21 13:00N 51°58' E 004°09'4 8.5
2017-Aug-21 12:31N 51°55' E 004°14'4 8.9
2017-Aug-21 12:00N 51°54' E 004°21'5 9.0
2017-Aug-21 11:30N 51°54' E 004°28'0 0.2
2017-Aug-21 11:00N 51°54' E 004°28'0 0.0
2017-Aug-21 10:30N 51°54' E 004°28'0 0.0
2017-Aug-21 10:00N 51°54' E 004°28'0 0.0
2017-Aug-21 09:30N 51°54' E 004°28'0 0.0
2017-Aug-21 09:00N 51°54' E 004°28'0 0.0
2017-Aug-21 08:30N 51°54' E 004°28'0 0.0
2017-Aug-21 08:00N 51°54' E 004°28'0 0.0
2017-Aug-21 07:30N 51°54' E 004°28'0 0.0
2017-Aug-21 07:00N 51°54' E 004°28'0 0.0
2017-Aug-21 06:30N 51°54' E 004°28'0 0.0
2017-Aug-21 06:00N 51°54' E 004°28'0 0.0
2017-Aug-21 05:29N 51°54' E 004°28'0 0.0
2017-Aug-21 05:00N 51°54' E 004°28'0 0.0
2017-Aug-21 04:30N 51°54' E 004°28'0 0.0
2017-Aug-21 04:00N 51°54' E 004°28'0 0.0
2017-Aug-21 03:30N 51°54' E 004°28'0 0.0
2017-Aug-21 02:59N 51°54' E 004°28'0 0.0
2017-Aug-21 02:30N 51°54' E 004°28'0 0.0
2017-Aug-21 02:00N 51°54' E 004°28'0 0.0
2017-Aug-21 01:30N 51°54' E 004°28'0 0.0
2017-Aug-21 01:00N 51°54' E 004°28'0 0.0
2017-Aug-21 00:30N 51°54' E 004°28'0 0.0
2017-Aug-21 00:00N 51°54' E 004°28'0 0.0
2017-Aug-20 23:30N 51°54' E 004°28'0 0.7
2017-Aug-20 23:00N 51°54' E 004°28'4 7.4
2017-Aug-20 22:31N 51°54' E 004°22'3 6.5
2017-Aug-20 22:01N 51°53' E 004°17'0 0.4
2017-Aug-20 21:30N 51°53' E 004°16'0 0.0
2017-Aug-20 21:00N 51°53' E 004°16'0 0.0
2017-Aug-20 20:31N 51°53' E 004°16'0 0.0
2017-Aug-20 20:01N 51°53' E 004°16'0 0.0
2017-Aug-20 19:31N 51°53' E 004°16'0 0.0
2017-Aug-20 19:01N 51°53' E 004°16'1 1.9
2017-Aug-20 18:30N 51°53' E 004°18'4 7.5
2017-Aug-20 18:00N 51°54' E 004°24'3 5.3
2017-Aug-20 17:30N 51°54' E 004°28'0 0.0
2017-Aug-20 17:00N 51°54' E 004°28'0 0.0
2017-Aug-20 16:30N 51°54' E 004°28'0 0.0
2017-Aug-20 16:00N 51°54' E 004°28'0 0.0
2017-Aug-20 15:30N 51°54' E 004°28'0 0.0
2017-Aug-20 15:00N 51°54' E 004°28'0 0.0
2017-Aug-20 14:30N 51°54' E 004°28'0 0.0
2017-Aug-20 14:00N 51°54' E 004°28'0 0.0
2017-Aug-20 13:30N 51°54' E 004°28'0 0.0
2017-Aug-20 13:00N 51°54' E 004°28'0 0.0
2017-Aug-20 12:30N 51°54' E 004°28'0 0.0
2017-Aug-20 12:00N 51°54' E 004°28'0 0.0
2017-Aug-20 11:30N 51°54' E 004°28'0 0.0
2017-Aug-20 11:00N 51°54' E 004°28'0 0.0
2017-Aug-20 10:30N 51°54' E 004°28'0 0.0
2017-Aug-20 10:00N 51°54' E 004°28'0 0.0
2017-Aug-20 09:30N 51°54' E 004°28'0 0.0
2017-Aug-20 09:00N 51°54' E 004°28'0 0.0
2017-Aug-20 08:30N 51°54' E 004°28'0 0.0
2017-Aug-20 08:00N 51°54' E 004°28'0 0.0
2017-Aug-20 07:30N 51°54' E 004°28'0 0.0
2017-Aug-20 07:00N 51°54' E 004°28'0 0.0
2017-Aug-20 06:30N 51°54' E 004°28'0 0.0
2017-Aug-20 06:00N 51°54' E 004°28'0 0.0
2017-Aug-20 05:30N 51°54' E 004°28'0 0.0
2017-Aug-20 05:00N 51°54' E 004°28'0 0.0
2017-Aug-20 04:30N 51°54' E 004°28'0 0.0
2017-Aug-20 04:00N 51°54' E 004°28'0 0.0
2017-Aug-20 03:30N 51°54' E 004°28'0 0.0
2017-Aug-20 03:00N 51°54' E 004°28'0 0.0
2017-Aug-20 02:30N 51°54' E 004°28'0 0.0
2017-Aug-20 02:00N 51°54' E 004°28'0 0.0
2017-Aug-20 01:30N 51°54' E 004°28'0 0.0
2017-Aug-20 01:00N 51°54' E 004°28'0 0.0
2017-Aug-20 00:30N 51°54' E 004°28'0 0.0
2017-Aug-20 00:00N 51°54' E 004°28'0 0.0
2017-Aug-19 23:30N 51°54' E 004°28'0 0.0
2017-Aug-19 23:00N 51°54' E 004°28'0 0.0
2017-Aug-19 22:30N 51°54' E 004°28'0 0.0
2017-Aug-19 22:00N 51°54' E 004°28'0 0.0
2017-Aug-19 21:30N 51°54' E 004°28'0 0.0
2017-Aug-19 21:00N 51°54' E 004°28'0 0.0
2017-Aug-19 20:30N 51°54' E 004°28'0 0.0
2017-Aug-19 20:00N 51°54' E 004°28'0 0.0
2017-Aug-19 19:30N 51°54' E 004°28'0 0.0
2017-Aug-19 19:00N 51°54' E 004°28'0 0.0
2017-Aug-19 18:30N 51°54' E 004°28'0 0.0
2017-Aug-19 18:00N 51°54' E 004°28'0 0.0
2017-Aug-19 17:30N 51°54' E 004°28'0 0.0
2017-Aug-19 17:00N 51°54' E 004°28'0 0.0
2017-Aug-19 16:30N 51°54' E 004°28'0 0.0
2017-Aug-19 16:00N 51°54' E 004°28'0 0.0
2017-Aug-19 15:30N 51°54' E 004°28'0 0.0
2017-Aug-19 15:00N 51°54' E 004°28'0 0.0
2017-Aug-19 14:00N 51°54' E 004°28'0 0.0
2017-Aug-19 13:30N 51°54' E 004°28'0 0.0
2017-Aug-19 13:00N 51°54' E 004°28'0 0.0
2017-Aug-19 12:30N 51°54' E 004°28'0 0.0
2017-Aug-19 12:00N 51°54' E 004°28'0 0.0
2017-Aug-19 11:30N 51°54' E 004°28'0 0.0
2017-Aug-19 11:00N 51°54' E 004°28'0 0.0
2017-Aug-19 10:30N 51°54' E 004°28'0 0.0
2017-Aug-19 10:00N 51°54' E 004°28'0 0.0
2017-Aug-19 09:30N 51°54' E 004°28'0 0.0
2017-Aug-19 09:00N 51°54' E 004°28'0 0.0
2017-Aug-19 08:30N 51°54' E 004°28'0 0.0
2017-Aug-19 08:00N 51°54' E 004°28'0 0.0
2017-Aug-19 07:30N 51°54' E 004°28'0 0.0
2017-Aug-19 07:00N 51°54' E 004°28'0 0.0
2017-Aug-19 06:30N 51°54' E 004°28'0 0.0
2017-Aug-19 06:00N 51°54' E 004°28'0 0.0
2017-Aug-19 05:30N 51°54' E 004°28'0 0.0
2017-Aug-19 05:00N 51°54' E 004°28'0 0.0
2017-Aug-19 04:30N 51°54' E 004°28'0 0.0
2017-Aug-19 04:00N 51°54' E 004°28'0 0.0
2017-Aug-19 03:30N 51°54' E 004°28'0 0.0
2017-Aug-19 03:00N 51°54' E 004°28'0 0.0
2017-Aug-19 02:30N 51°54' E 004°28'0 0.0
2017-Aug-19 02:00N 51°54' E 004°28'0 0.0
2017-Aug-19 01:30N 51°54' E 004°28'0 0.0
2017-Aug-19 01:00N 51°54' E 004°28'0 0.0
2017-Aug-19 00:30N 51°54' E 004°28'0 0.0
2017-Aug-19 00:00N 51°54' E 004°28'0 0.0
2017-Aug-18 23:30N 51°54' E 004°28'0 0.0
2017-Aug-18 23:00N 51°54' E 004°28'0 0.0
2017-Aug-18 22:30N 51°54' E 004°28'0 0.0
2017-Aug-18 22:00N 51°54' E 004°28'0 0.0
2017-Aug-18 21:30N 51°54' E 004°28'0 0.0
2017-Aug-18 21:00N 51°54' E 004°28'0 0.0
2017-Aug-18 20:30N 51°54' E 004°28'0 0.0
2017-Aug-18 20:00N 51°54' E 004°28'0 0.0
2017-Aug-18 19:30N 51°54' E 004°28'0 0.0
2017-Aug-18 19:00N 51°54' E 004°28'0 0.0
2017-Aug-18 18:30N 51°54' E 004°28'0 0.0
2017-Aug-18 18:00N 51°54' E 004°28'0 0.0
2017-Aug-18 17:30N 51°54' E 004°28'0 0.0
2017-Aug-18 17:00N 51°54' E 004°28'0 0.0
2017-Aug-18 16:30N 51°54' E 004°28'0 0.0
2017-Aug-18 16:00N 51°54' E 004°28'0 0.0
2017-Aug-18 15:30N 51°54' E 004°28'0 0.0
2017-Aug-18 15:00N 51°54' E 004°28'0 0.0
2017-Aug-18 14:30N 51°54' E 004°28'0 0.0
2017-Aug-18 13:30N 51°54' E 004°28'0 0.0
2017-Aug-18 13:00N 51°54' E 004°28'0 0.0
2017-Aug-18 12:30N 51°54' E 004°28'0 0.0
2017-Aug-18 11:59N 51°54' E 004°28'0 0.0
2017-Aug-18 11:30N 51°54' E 004°28'0 0.0
2017-Aug-18 11:00N 51°54' E 004°28'0 0.0
2017-Aug-18 10:29N 51°54' E 004°28'0 0.0
2017-Aug-18 10:00N 51°54' E 004°28'0 0.0
2017-Aug-18 09:30N 51°54' E 004°28'0 0.0
2017-Aug-18 09:00N 51°54' E 004°28'0 0.0
2017-Aug-18 08:30N 51°54' E 004°28'0 0.0
2017-Aug-18 08:00N 51°54' E 004°28'0 0.0
2017-Aug-18 07:30N 51°54' E 004°28'0 0.0
2017-Aug-18 07:00N 51°54' E 004°28'0 0.0
2017-Aug-18 06:30N 51°54' E 004°28'0 0.0
2017-Aug-18 06:00N 51°54' E 004°28'0 0.0
2017-Aug-18 05:30N 51°54' E 004°28'0 0.0
2017-Aug-18 05:00N 51°54' E 004°28'0 0.0
2017-Aug-18 04:30N 51°54' E 004°28'0 0.0
2017-Aug-18 04:00N 51°54' E 004°28'0 0.0
2017-Aug-18 03:30N 51°54' E 004°28'0 0.0
2017-Aug-18 03:00N 51°54' E 004°28'0 0.0
2017-Aug-18 02:30N 51°54' E 004°28'0 0.0
2017-Aug-18 02:00N 51°54' E 004°28'0 0.0
2017-Aug-18 01:30N 51°54' E 004°28'0 0.0
2017-Aug-18 01:00N 51°54' E 004°28'0 0.0
2017-Aug-18 00:30N 51°54' E 004°28'0 0.0
2017-Aug-18 00:00N 51°54' E 004°28'0 0.0
2017-Aug-17 23:30N 51°54' E 004°28'0 0.0
2017-Aug-17 23:00N 51°54' E 004°28'0 0.0
2017-Aug-17 22:30N 51°54' E 004°28'0 0.0
2017-Aug-17 22:00N 51°54' E 004°28'0 0.0
2017-Aug-17 21:30N 51°54' E 004°28'0 0.0
2017-Aug-17 21:00N 51°54' E 004°28'0 0.0
2017-Aug-17 20:30N 51°54' E 004°28'0 0.0
2017-Aug-17 20:00N 51°54' E 004°28'0 0.0
2017-Aug-17 19:30N 51°54' E 004°28'0 0.0
2017-Aug-17 19:00N 51°54' E 004°28'0 0.0
2017-Aug-17 18:30N 51°54' E 004°28'0 0.0
2017-Aug-17 18:00N 51°54' E 004°28'0 0.0
2017-Aug-17 17:30N 51°54' E 004°28'0 0.0
2017-Aug-17 17:00N 51°54' E 004°28'0 0.0
2017-Aug-17 16:30N 51°54' E 004°28'0 0.0
2017-Aug-17 16:00N 51°54' E 004°28'0 0.0
2017-Aug-17 15:30N 51°54' E 004°28'0 0.0
2017-Aug-17 15:00N 51°54' E 004°28'0 0.0
2017-Aug-17 14:30N 51°54' E 004°28'0 0.0
2017-Aug-17 14:00N 51°54' E 004°28'0 0.0
2017-Aug-17 13:29N 51°54' E 004°28'0 0.0
2017-Aug-17 13:00N 51°54' E 004°28'0 0.0
2017-Aug-17 12:30N 51°54' E 004°28'0 0.0
2017-Aug-17 12:00N 51°54' E 004°28'0 0.0
2017-Aug-17 11:30N 51°54' E 004°28'0 0.0
2017-Aug-17 11:00N 51°54' E 004°28'0 0.0
2017-Aug-17 10:30N 51°54' E 004°28'0 0.0
2017-Aug-17 10:00N 51°54' E 004°28'0 0.0
2017-Aug-17 09:30N 51°54' E 004°28'0 0.0
2017-Aug-17 09:00N 51°54' E 004°28'0 0.0
2017-Aug-17 08:30N 51°54' E 004°28'0 0.0
2017-Aug-17 08:00N 51°54' E 004°28'0 0.0
2017-Aug-17 07:29N 51°54' E 004°28'0 0.0
2017-Aug-17 07:00N 51°54' E 004°28'0 0.0
2017-Aug-17 06:30N 51°54' E 004°28'0 0.0
2017-Aug-17 06:00N 51°54' E 004°28'0 0.0
2017-Aug-17 05:30N 51°54' E 004°28'0 0.0
2017-Aug-17 05:00N 51°54' E 004°28'0 0.0
2017-Aug-17 04:29N 51°54' E 004°28'0 0.0
2017-Aug-17 04:00N 51°54' E 004°28'0 0.0
2017-Aug-17 03:30N 51°54' E 004°28'0 0.0
2017-Aug-17 03:00N 51°54' E 004°28'0 0.0
2017-Aug-17 02:30N 51°54' E 004°28'0 0.0
2017-Aug-17 02:00N 51°54' E 004°28'0 0.0
2017-Aug-17 01:30N 51°54' E 004°28'0 0.0
2017-Aug-17 00:59N 51°54' E 004°28'0 0.0
2017-Aug-17 00:29N 51°54' E 004°28'0 0.0
2017-Aug-17 00:00N 51°54' E 004°28'0 0.0
2017-Aug-16 23:30N 51°54' E 004°28'0 0.0
2017-Aug-16 23:00N 51°54' E 004°28'0 0.0
2017-Aug-16 22:30N 51°54' E 004°28'0 0.0
2017-Aug-16 22:00N 51°54' E 004°28'0 0.0
2017-Aug-16 21:30N 51°54' E 004°28'0 0.0
2017-Aug-16 21:00N 51°54' E 004°28'0 0.0
2017-Aug-16 20:30N 51°54' E 004°28'0 0.0
2017-Aug-16 20:00N 51°54' E 004°28'0 0.0
2017-Aug-16 19:30N 51°54' E 004°28'0 0.0
2017-Aug-16 19:00N 51°54' E 004°28'0 0.0
2017-Aug-16 18:30N 51°54' E 004°28'0 0.0
2017-Aug-16 18:00N 51°54' E 004°28'0 0.0
2017-Aug-16 17:30N 51°54' E 004°28'0 0.0
2017-Aug-16 17:00N 51°54' E 004°28'0 0.0
2017-Aug-16 16:30N 51°54' E 004°28'0 0.0
2017-Aug-16 16:00N 51°54' E 004°28'0 0.0
2017-Aug-16 15:30N 51°54' E 004°28'0 0.0
2017-Aug-16 15:00N 51°54' E 004°28'0 0.0
2017-Aug-16 14:30N 51°54' E 004°28'0 0.0
2017-Aug-16 14:00N 51°54' E 004°28'0 0.0
2017-Aug-16 13:30N 51°54' E 004°28'0 0.0
2017-Aug-16 13:00N 51°54' E 004°28'0 0.0
2017-Aug-16 12:30N 51°54' E 004°28'0 0.0
2017-Aug-16 12:00N 51°54' E 004°28'0 0.0
2017-Aug-16 11:30N 51°54' E 004°28'0 0.0
2017-Aug-16 11:00N 51°54' E 004°28'0 0.0
2017-Aug-16 10:30N 51°54' E 004°28'0 0.0
2017-Aug-16 10:00N 51°54' E 004°28'0 0.0
2017-Aug-16 09:30N 51°54' E 004°28'0 0.0
2017-Aug-16 09:00N 51°54' E 004°28'0 0.0
2017-Aug-16 08:30N 51°54' E 004°28'0 0.0
2017-Aug-16 08:00N 51°54' E 004°28'0 0.0
2017-Aug-16 07:30N 51°54' E 004°28'0 0.0
2017-Aug-16 07:00N 51°54' E 004°28'0 0.0
2017-Aug-16 06:30N 51°54' E 004°28'0 0.0
2017-Aug-16 06:00N 51°54' E 004°28'0 0.0
2017-Aug-16 05:30N 51°54' E 004°28'0 0.0
2017-Aug-16 05:00N 51°54' E 004°28'0 0.0
2017-Aug-16 04:30N 51°54' E 004°28'0 0.0
2017-Aug-16 04:00N 51°54' E 004°28'0 0.0
2017-Aug-16 03:30N 51°54' E 004°28'0 0.0
2017-Aug-16 03:00N 51°54' E 004°28'0 0.0
2017-Aug-16 02:30N 51°54' E 004°28'0 0.0
2017-Aug-16 02:00N 51°54' E 004°28'0 0.0
2017-Aug-16 01:30N 51°54' E 004°28'0 0.0
2017-Aug-16 01:00N 51°54' E 004°28'0 0.0
2017-Aug-16 00:30N 51°54' E 004°28'0 0.0
2017-Aug-16 00:00N 51°54' E 004°28'0 0.0
2017-Aug-15 23:30N 51°54' E 004°28'0 0.0
2017-Aug-15 23:00N 51°54' E 004°28'0 0.0
2017-Aug-15 22:30N 51°54' E 004°28'0 0.0
2017-Aug-15 22:00N 51°54' E 004°28'0 0.0
2017-Aug-15 21:30N 51°54' E 004°28'0 0.0
2017-Aug-15 21:00N 51°54' E 004°28'0 0.0
2017-Aug-15 20:30N 51°54' E 004°28'0 0.0
2017-Aug-15 20:00N 51°54' E 004°28'0 0.0
2017-Aug-15 19:30N 51°54' E 004°28'0 0.0
2017-Aug-15 19:00N 51°54' E 004°28'0 0.0
2017-Aug-15 18:30N 51°54' E 004°28'0 0.0
2017-Aug-15 18:00N 51°54' E 004°28'0 0.0
2017-Aug-15 17:30N 51°54' E 004°28'0 0.0
2017-Aug-15 17:00N 51°54' E 004°28'0 0.0
2017-Aug-15 16:30N 51°54' E 004°28'0 0.0
2017-Aug-15 16:00N 51°54' E 004°28'0 0.0
2017-Aug-15 15:30N 51°54' E 004°28'0 0.0
2017-Aug-15 15:00N 51°54' E 004°28'0 0.0
2017-Aug-15 14:30N 51°54' E 004°28'0 0.0
2017-Aug-15 14:00N 51°54' E 004°28'0 0.0
2017-Aug-15 13:30N 51°54' E 004°28'0 0.0
2017-Aug-15 13:00N 51°54' E 004°28'0 0.0
2017-Aug-15 12:30N 51°54' E 004°28'0 0.0
2017-Aug-15 12:00N 51°54' E 004°28'0 0.0
2017-Aug-15 11:30N 51°54' E 004°28'0 0.0
2017-Aug-15 11:00N 51°54' E 004°28'0 0.0
2017-Aug-15 10:30N 51°54' E 004°28'0 0.0
2017-Aug-15 10:00N 51°54' E 004°28'0 0.0
2017-Aug-15 09:30N 51°54' E 004°28'0 0.0
2017-Aug-15 09:00N 51°54' E 004°28'0 0.0
2017-Aug-15 08:30N 51°54' E 004°28'0 0.0
2017-Aug-15 08:00N 51°54' E 004°28'0 0.0
2017-Aug-15 07:30N 51°54' E 004°28'0 0.0
2017-Aug-15 07:00N 51°54' E 004°28'0 0.0
2017-Aug-15 06:30N 51°54' E 004°28'0 0.0
2017-Aug-15 06:00N 51°54' E 004°28'0 0.0
2017-Aug-15 05:30N 51°54' E 004°28'0 0.0
2017-Aug-15 05:00N 51°54' E 004°28'0 0.0
2017-Aug-15 04:30N 51°54' E 004°28'0 0.0
2017-Aug-15 04:00N 51°54' E 004°28'0 0.0
2017-Aug-15 03:30N 51°54' E 004°28'0 0.0
2017-Aug-15 03:00N 51°54' E 004°28'0 0.0
2017-Aug-15 02:30N 51°54' E 004°28'0 0.0
2017-Aug-15 02:00N 51°54' E 004°28'0 0.0
2017-Aug-15 01:30N 51°54' E 004°28'0 0.0
2017-Aug-15 01:00N 51°54' E 004°28'0 0.0
2017-Aug-15 00:30N 51°54' E 004°28'0 0.0
2017-Aug-15 00:00N 51°54' E 004°28'0 0.0
2017-Aug-14 23:30N 51°54' E 004°28'0 0.0
2017-Aug-14 23:00N 51°54' E 004°28'0 0.0
2017-Aug-14 22:30N 51°54' E 004°28'0 0.0
2017-Aug-14 22:00N 51°54' E 004°28'0 0.0
2017-Aug-14 21:30N 51°54' E 004°28'0 0.0
2017-Aug-14 21:00N 51°54' E 004°28'0 0.0
2017-Aug-14 20:30N 51°54' E 004°28'0 0.0
2017-Aug-14 20:00N 51°54' E 004°28'0 0.0
2017-Aug-14 19:30N 51°54' E 004°28'0 0.0
2017-Aug-14 19:00N 51°54' E 004°28'0 0.0
2017-Aug-14 18:30N 51°54' E 004°28'0 0.0
2017-Aug-14 18:00N 51°54' E 004°28'0 0.0
2017-Aug-14 17:30N 51°54' E 004°28'0 0.0
2017-Aug-14 17:00N 51°54' E 004°28'0 0.0
2017-Aug-14 16:30N 51°54' E 004°28'0 0.0
2017-Aug-14 16:00N 51°54' E 004°28'0 0.0
2017-Aug-14 15:30N 51°54' E 004°28'0 0.2
2017-Aug-14 15:00N 51°54' E 004°28'0 0.2
2017-Aug-14 14:30N 51°54' E 004°28'0 0.0
2017-Aug-14 14:00N 51°54' E 004°28'0 0.0
2017-Aug-14 13:30N 51°54' E 004°28'0 0.0
2017-Aug-14 13:00N 51°54' E 004°28'0 0.0
2017-Aug-14 12:30N 51°54' E 004°28'0 0.0
2017-Aug-14 12:00N 51°54' E 004°28'0 0.0
2017-Aug-14 11:30N 51°54' E 004°28'0 0.0
2017-Aug-14 11:00N 51°54' E 004°28'0 0.0
2017-Aug-14 10:30N 51°54' E 004°28'0 0.1
2017-Aug-14 10:00N 51°54' E 004°28'3 5.9
2017-Aug-14 09:31N 51°54' E 004°23'4 8.1
2017-Aug-14 09:01N 51°54' E 004°17'4 8.2
2017-Aug-14 08:30N 51°56' E 004°12'4 8.7
2017-Aug-14 08:00N 51°59' E 004°06'4 8.1
2017-Aug-14 07:31N 52°00' E 003°59'510.0
2017-Aug-14 07:01N 52°01' E 003°51'4 7.9
2017-Aug-14 06:30N 51°59' E 003°45'3 0.8
2017-Aug-14 03:02N 51°57' E 003°43'0 0.0
2017-Aug-14 03:00N 51°57' E 003°43'0 0.0
2017-Aug-14 02:30N 51°57' E 003°43'0 0.0
2017-Aug-14 02:00N 51°57' E 003°43'0 0.0
2017-Aug-14 01:30N 51°57' E 003°43'0 0.0
2017-Aug-14 00:59N 51°57' E 003°43'0 0.0
2017-Aug-13 18:51N 51°57' E 003°43'0 0.0
2017-Aug-13 17:24N 51°57' E 003°43'0 0.0
2017-Aug-13 17:00N 51°57' E 003°43'0 0.1
2017-Aug-13 15:32N 51°57' E 003°43'0 0.0
2017-Aug-13 15:30N 51°57' E 003°43'0 0.0
2017-Aug-13 15:00N 51°57' E 003°43'0 0.0
2017-Aug-13 14:30N 51°57' E 003°43'0 0.0
2017-Aug-13 14:00N 51°57' E 003°43'0 0.0
2017-Aug-12 18:52N 51°57' E 003°43'11 9.5
2017-Aug-12 17:45N 51°55' E 003°26'0 1.0
2017-Aug-12 17:30N 51°55' E 003°25'1210.7
2017-Aug-12 16:25N 51°51' E 003°07'37 9.6
2017-Aug-12 12:34N 51°29' E 002°19'1 8.5
2017-Aug-12 12:28N 51°29' E 002°18'4 7.9
2017-Aug-12 12:00N 51°26' E 002°15'4 7.5
2017-Aug-12 11:31N 51°23' E 002°12'4 7.6
2017-Aug-12 11:01N 51°19' E 002°08'4 7.4
2017-Aug-12 10:31N 51°16' E 002°05'4 7.0
2017-Aug-12 10:01N 51°14' E 002°01'4 7.3
2017-Aug-12 09:31N 51°11' E 001°57'4 7.4
2017-Aug-12 09:01N 51°09' E 001°53'4 7.4
2017-Aug-12 08:31N 51°06' E 001°48'4 7.5
2017-Aug-12 08:01N 51°04' E 001°44'4 8.0
2017-Aug-12 07:31N 51°01' E 001°40'4 8.5
2017-Aug-12 07:00N 50°58' E 001°35'5 9.1
2017-Aug-12 06:28N 50°54' E 001°30'  

Dump ship's entire track history